sensor_id;sensor_type;location;lat;lon;timestamp;temperature;humidity
41116;DHT22;26861;51.824;4.682;2023-06-22T00:02:00;27.40;43.50
41116;DHT22;26861;51.824;4.682;2023-06-22T00:04:26;27.40;43.40
41116;DHT22;26861;51.824;4.682;2023-06-22T00:06:52;27.40;43.50
41116;DHT22;26861;51.824;4.682;2023-06-22T00:09:17;27.40;43.50
41116;DHT22;26861;51.824;4.682;2023-06-22T00:11:43;27.40;43.40
41116;DHT22;26861;51.824;4.682;2023-06-22T00:14:09;27.40;43.60
41116;DHT22;26861;51.824;4.682;2023-06-22T00:16:34;27.40;44.20
41116;DHT22;26861;51.824;4.682;2023-06-22T00:19:00;27.60;43.70
41116;DHT22;26861;51.824;4.682;2023-06-22T00:21:27;27.30;43.40
41116;DHT22;26861;51.824;4.682;2023-06-22T00:23:53;27.30;43.50
41116;DHT22;26861;51.824;4.682;2023-06-22T00:26:19;27.30;43.50
41116;DHT22;26861;51.824;4.682;2023-06-22T00:28:46;27.30;43.50
41116;DHT22;26861;51.824;4.682;2023-06-22T00:31:12;27.30;43.60
41116;DHT22;26861;51.824;4.682;2023-06-22T00:33:37;27.30;43.30
41116;DHT22;26861;51.824;4.682;2023-06-22T00:36:03;27.20;43.60
41116;DHT22;26861;51.824;4.682;2023-06-22T00:38:29;27.20;43.60
41116;DHT22;26861;51.824;4.682;2023-06-22T00:40:55;27.20;43.40
41116;DHT22;26861;51.824;4.682;2023-06-22T00:43:20;27.20;43.70
41116;DHT22;26861;51.824;4.682;2023-06-22T00:45:46;27.20;43.60
41116;DHT22;26861;51.824;4.682;2023-06-22T00:48:14;27.20;43.60
41116;DHT22;26861;51.824;4.682;2023-06-22T00:50:40;27.20;43.60
41116;DHT22;26861;51.824;4.682;2023-06-22T00:53:08;27.20;43.70
41116;DHT22;26861;51.824;4.682;2023-06-22T00:55:52;27.20;43.70
41116;DHT22;26861;51.824;4.682;2023-06-22T00:58:18;27.10;43.60
41116;DHT22;26861;51.824;4.682;2023-06-22T01:00:47;27.20;43.60
41116;DHT22;26861;51.824;4.682;2023-06-22T01:03:13;27.70;44.00
41116;DHT22;26861;51.824;4.682;2023-06-22T01:05:40;27.10;43.60
41116;DHT22;26861;51.824;4.682;2023-06-22T01:10:54;27.10;43.60
41116;DHT22;26861;51.824;4.682;2023-06-22T01:13:30;27.10;43.60
41116;DHT22;26861;51.824;4.682;2023-06-22T01:18:42;27.10;43.60
41116;DHT22;26861;51.824;4.682;2023-06-22T01:21:12;27.10;43.60
41116;DHT22;26861;51.824;4.682;2023-06-22T01:29:32;27.00;43.50
41116;DHT22;26861;51.824;4.682;2023-06-22T01:31:59;27.00;43.70
41116;DHT22;26861;51.824;4.682;2023-06-22T01:34:25;27.00;43.70
41116;DHT22;26861;51.824;4.682;2023-06-22T01:36:53;27.00;43.80
41116;DHT22;26861;51.824;4.682;2023-06-22T01:39:21;27.00;43.80
41116;DHT22;26861;51.824;4.682;2023-06-22T01:41:48;27.00;43.80
41116;DHT22;26861;51.824;4.682;2023-06-22T01:44:14;26.90;43.80
41116;DHT22;26861;51.824;4.682;2023-06-22T01:46:41;26.90;43.70
41116;DHT22;26861;51.824;4.682;2023-06-22T01:49:08;26.90;43.80
41116;DHT22;26861;51.824;4.682;2023-06-22T01:51:34;26.90;43.40
41116;DHT22;26861;51.824;4.682;2023-06-22T01:54:01;26.90;43.60
41116;DHT22;26861;51.824;4.682;2023-06-22T01:56:28;26.90;44.60
41116;DHT22;26861;51.824;4.682;2023-06-22T02:04:28;26.80;43.70
41116;DHT22;26861;51.824;4.682;2023-06-22T02:06:59;26.80;43.90
41116;DHT22;26861;51.824;4.682;2023-06-22T02:09:28;26.80;43.90
41116;DHT22;26861;51.824;4.682;2023-06-22T02:11:56;26.80;43.70
41116;DHT22;26861;51.824;4.682;2023-06-22T02:14:23;26.80;43.90
41116;DHT22;26861;51.824;4.682;2023-06-22T02:16:51;26.80;43.90
41116;DHT22;26861;51.824;4.682;2023-06-22T02:19:16;26.70;43.70
41116;DHT22;26861;51.824;4.682;2023-06-22T02:21:45;26.70;43.70
41116;DHT22;26861;51.824;4.682;2023-06-22T02:24:10;26.70;43.90
41116;DHT22;26861;51.824;4.682;2023-06-22T02:26:37;26.70;44.00
41116;DHT22;26861;51.824;4.682;2023-06-22T02:29:04;26.70;43.90
41116;DHT22;26861;51.824;4.682;2023-06-22T02:31:29;26.70;43.80
41116;DHT22;26861;51.824;4.682;2023-06-22T02:33:58;26.70;43.90
41116;DHT22;26861;51.824;4.682;2023-06-22T02:36:24;26.70;43.70
41116;DHT22;26861;51.824;4.682;2023-06-22T02:38:53;26.60;44.00
41116;DHT22;26861;51.824;4.682;2023-06-22T02:41:20;26.60;44.00
41116;DHT22;26861;51.824;4.682;2023-06-22T02:43:46;26.60;43.80
41116;DHT22;26861;51.824;4.682;2023-06-22T02:46:13;26.60;43.80
41116;DHT22;26861;51.824;4.682;2023-06-22T02:48:40;26.60;44.00
41116;DHT22;26861;51.824;4.682;2023-06-22T02:51:06;26.60;44.00
41116;DHT22;26861;51.824;4.682;2023-06-22T02:53:33;27.30;44.50
41116;DHT22;26861;51.824;4.682;2023-06-22T02:56:03;26.60;44.00
41116;DHT22;26861;51.824;4.682;2023-06-22T02:58:32;26.50;44.00
41116;DHT22;26861;51.824;4.682;2023-06-22T03:01:05;26.50;44.10
41116;DHT22;26861;51.824;4.682;2023-06-22T03:03:31;26.60;44.10
41116;DHT22;26861;51.824;4.682;2023-06-22T03:05:57;26.50;44.00
41116;DHT22;26861;51.824;4.682;2023-06-22T03:08:22;26.50;44.00
41116;DHT22;26861;51.824;4.682;2023-06-22T03:10:48;26.50;44.00
41116;DHT22;26861;51.824;4.682;2023-06-22T03:13:13;26.50;43.90
41116;DHT22;26861;51.824;4.682;2023-06-22T03:15:39;26.50;44.20
41116;DHT22;26861;51.824;4.682;2023-06-22T03:18:05;26.50;44.00
41116;DHT22;26861;51.824;4.682;2023-06-22T03:20:30;26.50;44.10
41116;DHT22;26861;51.824;4.682;2023-06-22T03:22:58;26.40;43.90
41116;DHT22;26861;51.824;4.682;2023-06-22T03:25:24;26.50;44.10
41116;DHT22;26861;51.824;4.682;2023-06-22T03:27:50;26.40;44.30
41116;DHT22;26861;51.824;4.682;2023-06-22T03:30:16;26.40;44.10
41116;DHT22;26861;51.824;4.682;2023-06-22T03:32:41;26.40;44.20
41116;DHT22;26861;51.824;4.682;2023-06-22T03:35:08;26.40;44.30
41116;DHT22;26861;51.824;4.682;2023-06-22T03:37:34;26.40;44.10
41116;DHT22;26861;51.824;4.682;2023-06-22T03:40:00;26.40;44.00
41116;DHT22;26861;51.824;4.682;2023-06-22T03:42:26;26.30;44.00
41116;DHT22;26861;51.824;4.682;2023-06-22T03:44:52;26.30;44.00
41116;DHT22;26861;51.824;4.682;2023-06-22T03:47:18;26.30;44.30
41116;DHT22;26861;51.824;4.682;2023-06-22T03:49:43;26.30;44.40
41116;DHT22;26861;51.824;4.682;2023-06-22T03:52:09;26.30;44.30
41116;DHT22;26861;51.824;4.682;2023-06-22T03:54:36;26.30;44.40
41116;DHT22;26861;51.824;4.682;2023-06-22T03:57:02;26.30;44.20
41116;DHT22;26861;51.824;4.682;2023-06-22T03:59:29;26.30;44.30
41116;DHT22;26861;51.824;4.682;2023-06-22T04:01:55;26.30;44.40
41116;DHT22;26861;51.824;4.682;2023-06-22T04:04:21;26.20;44.40
41116;DHT22;26861;51.824;4.682;2023-06-22T04:06:47;26.20;44.30
41116;DHT22;26861;51.824;4.682;2023-06-22T04:09:13;26.30;44.30
41116;DHT22;26861;51.824;4.682;2023-06-22T04:11:39;26.20;44.40
41116;DHT22;26861;51.824;4.682;2023-06-22T04:14:05;26.20;44.30
41116;DHT22;26861;51.824;4.682;2023-06-22T04:16:31;26.20;44.50
41116;DHT22;26861;51.824;4.682;2023-06-22T04:18:56;26.20;44.40
41116;DHT22;26861;51.824;4.682;2023-06-22T04:21:22;26.10;44.60
41116;DHT22;26861;51.824;4.682;2023-06-22T04:23:47;26.10;44.40
41116;DHT22;26861;51.824;4.682;2023-06-22T04:26:13;26.10;44.50
41116;DHT22;26861;51.824;4.682;2023-06-22T04:28:42;26.20;44.90
41116;DHT22;26861;51.824;4.682;2023-06-22T04:31:07;26.10;44.90
41116;DHT22;26861;51.824;4.682;2023-06-22T04:33:33;26.10;44.50
41116;DHT22;26861;51.824;4.682;2023-06-22T04:35:59;26.10;44.80
41116;DHT22;26861;51.824;4.682;2023-06-22T04:38:29;26.10;44.80
41116;DHT22;26861;51.824;4.682;2023-06-22T04:40:58;26.00;45.10
41116;DHT22;26861;51.824;4.682;2023-06-22T04:43:26;26.00;44.80
41116;DHT22;26861;51.824;4.682;2023-06-22T04:45:56;26.00;44.70
41116;DHT22;26861;51.824;4.682;2023-06-22T04:48:21;26.00;44.80
41116;DHT22;26861;51.824;4.682;2023-06-22T04:50:47;26.00;44.80
41116;DHT22;26861;51.824;4.682;2023-06-22T04:53:13;26.00;45.00
41116;DHT22;26861;51.824;4.682;2023-06-22T04:55:39;26.00;44.70
41116;DHT22;26861;51.824;4.682;2023-06-22T04:58:10;26.10;44.70
41116;DHT22;26861;51.824;4.682;2023-06-22T05:00:38;26.00;44.80
41116;DHT22;26861;51.824;4.682;2023-06-22T05:03:04;26.00;45.00
41116;DHT22;26861;51.824;4.682;2023-06-22T05:05:32;26.00;44.80
41116;DHT22;26861;51.824;4.682;2023-06-22T05:07:57;26.00;45.10
41116;DHT22;26861;51.824;4.682;2023-06-22T05:10:26;26.00;44.90
41116;DHT22;26861;51.824;4.682;2023-06-22T05:12:51;26.00;45.00
41116;DHT22;26861;51.824;4.682;2023-06-22T05:15:17;26.00;45.00
41116;DHT22;26861;51.824;4.682;2023-06-22T05:17:45;26.00;45.20
41116;DHT22;26861;51.824;4.682;2023-06-22T05:20:12;26.00;45.10
41116;DHT22;26861;51.824;4.682;2023-06-22T05:22:38;26.00;44.90
41116;DHT22;26861;51.824;4.682;2023-06-22T05:25:07;26.00;44.90
41116;DHT22;26861;51.824;4.682;2023-06-22T05:27:33;25.90;45.10
41116;DHT22;26861;51.824;4.682;2023-06-22T05:29:59;26.00;45.00
41116;DHT22;26861;51.824;4.682;2023-06-22T05:32:24;26.00;45.30
41116;DHT22;26861;51.824;4.682;2023-06-22T05:34:50;26.00;45.10
41116;DHT22;26861;51.824;4.682;2023-06-22T05:37:16;26.00;45.50
41116;DHT22;26861;51.824;4.682;2023-06-22T05:39:41;26.00;45.20
41116;DHT22;26861;51.824;4.682;2023-06-22T05:42:07;26.00;45.60
41116;DHT22;26861;51.824;4.682;2023-06-22T05:44:33;25.90;45.30
41116;DHT22;26861;51.824;4.682;2023-06-22T05:46:59;25.90;45.60
41116;DHT22;26861;51.824;4.682;2023-06-22T05:49:25;25.90;45.50
41116;DHT22;26861;51.824;4.682;2023-06-22T05:51:55;25.90;46.20
41116;DHT22;26861;51.824;4.682;2023-06-22T05:54:22;25.90;46.60
41116;DHT22;26861;51.824;4.682;2023-06-22T05:56:48;25.90;45.80
41116;DHT22;26861;51.824;4.682;2023-06-22T05:59:13;25.90;46.30
41116;DHT22;26861;51.824;4.682;2023-06-22T06:01:39;25.90;46.20
41116;DHT22;26861;51.824;4.682;2023-06-22T06:04:05;25.90;46.30
41116;DHT22;26861;51.824;4.682;2023-06-22T06:06:33;26.10;62.00
41116;DHT22;26861;51.824;4.682;2023-06-22T06:09:03;25.90;46.10
41116;DHT22;26861;51.824;4.682;2023-06-22T06:11:29;26.00;46.60
41116;DHT22;26861;51.824;4.682;2023-06-22T06:13:55;26.00;46.70
41116;DHT22;26861;51.824;4.682;2023-06-22T06:16:22;26.00;46.40
41116;DHT22;26861;51.824;4.682;2023-06-22T06:18:48;26.00;46.50
41116;DHT22;26861;51.824;4.682;2023-06-22T06:21:16;25.90;46.70
41116;DHT22;26861;51.824;4.682;2023-06-22T06:23:42;26.00;46.80
41116;DHT22;26861;51.824;4.682;2023-06-22T06:26:08;26.00;47.60
41116;DHT22;26861;51.824;4.682;2023-06-22T06:28:34;26.00;47.60
41116;DHT22;26861;51.824;4.682;2023-06-22T06:31:00;26.00;46.80
41116;DHT22;26861;51.824;4.682;2023-06-22T06:33:26;26.00;47.00
41116;DHT22;26861;51.824;4.682;2023-06-22T06:38:21;26.10;62.90
41116;DHT22;26861;51.824;4.682;2023-06-22T06:40:47;26.00;47.30
41116;DHT22;26861;51.824;4.682;2023-06-22T06:43:14;26.00;47.00
41116;DHT22;26861;51.824;4.682;2023-06-22T06:45:41;26.00;47.00
41116;DHT22;26861;51.824;4.682;2023-06-22T06:48:07;26.00;47.30
41116;DHT22;26861;51.824;4.682;2023-06-22T06:50:33;26.00;47.10
41116;DHT22;26861;51.824;4.682;2023-06-22T06:52:59;26.00;47.40
41116;DHT22;26861;51.824;4.682;2023-06-22T06:55:25;26.00;47.20
41116;DHT22;26861;51.824;4.682;2023-06-22T06:57:51;26.00;47.20
41116;DHT22;26861;51.824;4.682;2023-06-22T07:00:18;26.00;47.40
41116;DHT22;26861;51.824;4.682;2023-06-22T07:02:45;26.00;47.40
41116;DHT22;26861;51.824;4.682;2023-06-22T07:05:13;26.00;47.50
41116;DHT22;26861;51.824;4.682;2023-06-22T07:07:39;26.00;47.60
41116;DHT22;26861;51.824;4.682;2023-06-22T07:10:07;26.10;47.80
41116;DHT22;26861;51.824;4.682;2023-06-22T07:12:34;26.10;47.70
41116;DHT22;26861;51.824;4.682;2023-06-22T07:15:07;26.10;47.70
41116;DHT22;26861;51.824;4.682;2023-06-22T07:17:34;26.10;47.70
41116;DHT22;26861;51.824;4.682;2023-06-22T07:20:00;26.10;47.80
41116;DHT22;26861;51.824;4.682;2023-06-22T07:22:26;26.10;47.70
41116;DHT22;26861;51.824;4.682;2023-06-22T07:24:52;26.10;47.50
41116;DHT22;26861;51.824;4.682;2023-06-22T07:27:17;26.10;47.80
41116;DHT22;26861;51.824;4.682;2023-06-22T07:29:45;26.10;47.80
41116;DHT22;26861;51.824;4.682;2023-06-22T07:32:11;26.10;47.90
41116;DHT22;26861;51.824;4.682;2023-06-22T07:34:37;26.10;47.90
41116;DHT22;26861;51.824;4.682;2023-06-22T07:37:03;26.20;48.00
41116;DHT22;26861;51.824;4.682;2023-06-22T07:39:30;26.20;48.60
41116;DHT22;26861;51.824;4.682;2023-06-22T07:41:56;26.20;47.90
41116;DHT22;26861;51.824;4.682;2023-06-22T07:44:22;26.20;48.00
41116;DHT22;26861;51.824;4.682;2023-06-22T07:46:48;26.20;47.90
41116;DHT22;26861;51.824;4.682;2023-06-22T07:49:13;26.30;48.00
41116;DHT22;26861;51.824;4.682;2023-06-22T07:51:39;26.30;48.00
41116;DHT22;26861;51.824;4.682;2023-06-22T07:54:05;26.30;47.80
41116;DHT22;26861;51.824;4.682;2023-06-22T07:56:30;26.30;47.80
41116;DHT22;26861;51.824;4.682;2023-06-22T07:58:56;26.20;47.80
41116;DHT22;26861;51.824;4.682;2023-06-22T08:01:23;25.80;63.50
41116;DHT22;26861;51.824;4.682;2023-06-22T08:03:49;26.20;48.00
41116;DHT22;26861;51.824;4.682;2023-06-22T08:06:15;26.30;48.10
41116;DHT22;26861;51.824;4.682;2023-06-22T08:08:42;26.30;48.10
41116;DHT22;26861;51.824;4.682;2023-06-22T08:11:08;26.30;48.30
41116;DHT22;26861;51.824;4.682;2023-06-22T08:13:34;26.30;48.30
41116;DHT22;26861;51.824;4.682;2023-06-22T08:15:59;26.30;48.40
41116;DHT22;26861;51.824;4.682;2023-06-22T08:18:25;26.30;48.50
41116;DHT22;26861;51.824;4.682;2023-06-22T08:20:51;26.30;49.10
41116;DHT22;26861;51.824;4.682;2023-06-22T08:23:16;26.30;48.30
41116;DHT22;26861;51.824;4.682;2023-06-22T08:25:42;26.40;48.50
41116;DHT22;26861;51.824;4.682;2023-06-22T08:28:08;26.40;48.50
41116;DHT22;26861;51.824;4.682;2023-06-22T08:30:33;26.40;48.50
41116;DHT22;26861;51.824;4.682;2023-06-22T08:32:59;26.50;48.70
41116;DHT22;26861;51.824;4.682;2023-06-22T08:35:25;26.50;48.60
41116;DHT22;26861;51.824;4.682;2023-06-22T08:37:50;26.50;48.70
41116;DHT22;26861;51.824;4.682;2023-06-22T08:40:20;26.50;48.10
41116;DHT22;26861;51.824;4.682;2023-06-22T08:42:47;26.50;48.70
41116;DHT22;26861;51.824;4.682;2023-06-22T08:45:13;26.60;48.80
41116;DHT22;26861;51.824;4.682;2023-06-22T08:47:40;26.60;48.70
41116;DHT22;26861;51.824;4.682;2023-06-22T08:50:10;26.60;48.70
41116;DHT22;26861;51.824;4.682;2023-06-22T08:52:36;26.60;48.80
41116;DHT22;26861;51.824;4.682;2023-06-22T08:55:03;26.60;49.00
41116;DHT22;26861;51.824;4.682;2023-06-22T08:57:28;26.60;49.00
41116;DHT22;26861;51.824;4.682;2023-06-22T08:59:56;26.70;48.90
41116;DHT22;26861;51.824;4.682;2023-06-22T09:02:27;26.70;49.00
41116;DHT22;26861;51.824;4.682;2023-06-22T09:04:59;26.70;48.90
41116;DHT22;26861;51.824;4.682;2023-06-22T09:07:25;26.70;48.90
41116;DHT22;26861;51.824;4.682;2023-06-22T09:09:51;26.70;48.90
41116;DHT22;26861;51.824;4.682;2023-06-22T09:12:20;26.70;48.80
41116;DHT22;26861;51.824;4.682;2023-06-22T09:14:48;26.80;49.00
41116;DHT22;26861;51.824;4.682;2023-06-22T09:17:13;26.80;49.10
41116;DHT22;26861;51.824;4.682;2023-06-22T09:19:39;26.80;49.00
41116;DHT22;26861;51.824;4.682;2023-06-22T09:22:05;26.80;49.00
41116;DHT22;26861;51.824;4.682;2023-06-22T09:24:32;26.90;49.00
41116;DHT22;26861;51.824;4.682;2023-06-22T09:26:57;27.00;49.00
41116;DHT22;26861;51.824;4.682;2023-06-22T09:29:23;27.00;49.00
41116;DHT22;26861;51.824;4.682;2023-06-22T09:31:49;27.00;49.00
41116;DHT22;26861;51.824;4.682;2023-06-22T09:34:14;27.00;48.90
41116;DHT22;26861;51.824;4.682;2023-06-22T09:36:41;27.10;48.90
41116;DHT22;26861;51.824;4.682;2023-06-22T09:39:07;27.10;49.00
41116;DHT22;26861;51.824;4.682;2023-06-22T09:41:32;27.10;48.80
41116;DHT22;26861;51.824;4.682;2023-06-22T09:43:58;27.10;48.90
41116;DHT22;26861;51.824;4.682;2023-06-22T09:46:23;27.20;49.10
41116;DHT22;26861;51.824;4.682;2023-06-22T09:48:53;27.10;49.00
41116;DHT22;26861;51.824;4.682;2023-06-22T09:51:19;27.10;49.00
41116;DHT22;26861;51.824;4.682;2023-06-22T09:53:47;27.20;49.00
41116;DHT22;26861;51.824;4.682;2023-06-22T09:56:12;27.20;49.00
41116;DHT22;26861;51.824;4.682;2023-06-22T09:58:45;27.20;49.30
41116;DHT22;26861;51.824;4.682;2023-06-22T10:01:11;27.00;64.50
41116;DHT22;26861;51.824;4.682;2023-06-22T10:03:38;27.20;49.30
41116;DHT22;26861;51.824;4.682;2023-06-22T10:06:04;27.20;49.20
41116;DHT22;26861;51.824;4.682;2023-06-22T10:08:29;27.20;49.20
41116;DHT22;26861;51.824;4.682;2023-06-22T10:10:55;27.20;49.10
41116;DHT22;26861;51.824;4.682;2023-06-22T10:13:21;27.20;49.10
41116;DHT22;26861;51.824;4.682;2023-06-22T10:15:46;27.30;49.20
41116;DHT22;26861;51.824;4.682;2023-06-22T10:18:17;27.30;49.30
41116;DHT22;26861;51.824;4.682;2023-06-22T10:20:43;27.30;49.60
41116;DHT22;26861;51.824;4.682;2023-06-22T10:23:09;27.30;49.30
41116;DHT22;26861;51.824;4.682;2023-06-22T10:25:35;27.30;49.40
41116;DHT22;26861;51.824;4.682;2023-06-22T10:28:00;27.30;49.60
41116;DHT22;26861;51.824;4.682;2023-06-22T10:30:26;27.30;49.60
41116;DHT22;26861;51.824;4.682;2023-06-22T10:32:52;27.30;49.50
41116;DHT22;26861;51.824;4.682;2023-06-22T10:35:17;27.30;49.70
41116;DHT22;26861;51.824;4.682;2023-06-22T10:37:44;27.40;49.70
41116;DHT22;26861;51.824;4.682;2023-06-22T10:40:12;27.40;49.70
41116;DHT22;26861;51.824;4.682;2023-06-22T10:42:37;27.40;49.70
41116;DHT22;26861;51.824;4.682;2023-06-22T10:45:03;27.40;49.70
41116;DHT22;26861;51.824;4.682;2023-06-22T10:47:29;27.40;49.90
41116;DHT22;26861;51.824;4.682;2023-06-22T10:49:55;27.40;49.90
41116;DHT22;26861;51.824;4.682;2023-06-22T10:52:20;27.40;49.90
41116;DHT22;26861;51.824;4.682;2023-06-22T10:54:46;27.40;49.80
41116;DHT22;26861;51.824;4.682;2023-06-22T10:57:13;27.40;49.90
41116;DHT22;26861;51.824;4.682;2023-06-22T10:59:39;27.40;49.90
41116;DHT22;26861;51.824;4.682;2023-06-22T11:02:05;27.40;49.90
41116;DHT22;26861;51.824;4.682;2023-06-22T11:04:31;27.50;49.90
41116;DHT22;26861;51.824;4.682;2023-06-22T11:06:57;27.40;49.90
41116;DHT22;26861;51.824;4.682;2023-06-22T11:09:23;27.40;49.70
41116;DHT22;26861;51.824;4.682;2023-06-22T11:11:51;27.50;50.60
41116;DHT22;26861;51.824;4.682;2023-06-22T11:14:20;27.50;50.00
41116;DHT22;26861;51.824;4.682;2023-06-22T11:16:46;27.50;49.80
41116;DHT22;26861;51.824;4.682;2023-06-22T11:19:14;27.40;49.70
41116;DHT22;26861;51.824;4.682;2023-06-22T11:21:40;27.50;49.90
41116;DHT22;26861;51.824;4.682;2023-06-22T11:24:06;27.50;50.00
41116;DHT22;26861;51.824;4.682;2023-06-22T11:26:31;27.50;50.00
41116;DHT22;26861;51.824;4.682;2023-06-22T11:28:58;27.50;49.70
41116;DHT22;26861;51.824;4.682;2023-06-22T11:31:24;27.50;49.80
41116;DHT22;26861;51.824;4.682;2023-06-22T11:33:50;27.50;49.80
41116;DHT22;26861;51.824;4.682;2023-06-22T11:36:16;27.50;49.60
41116;DHT22;26861;51.824;4.682;2023-06-22T11:38:42;27.50;49.80
41116;DHT22;26861;51.824;4.682;2023-06-22T11:41:08;27.50;50.00
41116;DHT22;26861;51.824;4.682;2023-06-22T11:43:35;27.50;50.10
41116;DHT22;26861;51.824;4.682;2023-06-22T11:46:02;27.50;49.70
41116;DHT22;26861;51.824;4.682;2023-06-22T11:48:29;27.50;49.90
41116;DHT22;26861;51.824;4.682;2023-06-22T11:50:55;27.50;50.10
41116;DHT22;26861;51.824;4.682;2023-06-22T11:53:23;27.50;50.00
41116;DHT22;26861;51.824;4.682;2023-06-22T11:55:49;27.60;50.10
41116;DHT22;26861;51.824;4.682;2023-06-22T11:58:15;27.60;50.30
41116;DHT22;26861;51.824;4.682;2023-06-22T12:00:42;27.60;50.50
41116;DHT22;26861;51.824;4.682;2023-06-22T12:03:08;27.60;50.10
41116;DHT22;26861;51.824;4.682;2023-06-22T12:05:35;27.60;50.20
41116;DHT22;26861;51.824;4.682;2023-06-22T12:08:01;27.60;50.10
41116;DHT22;26861;51.824;4.682;2023-06-22T12:10:27;27.60;50.40
41116;DHT22;26861;51.824;4.682;2023-06-22T12:12:54;27.60;50.60
41116;DHT22;26861;51.824;4.682;2023-06-22T12:15:20;27.60;50.90
41116;DHT22;26861;51.824;4.682;2023-06-22T12:17:46;27.60;50.10
41116;DHT22;26861;51.824;4.682;2023-06-22T12:20:14;27.60;50.20
41116;DHT22;26861;51.824;4.682;2023-06-22T12:22:41;27.60;50.40
41116;DHT22;26861;51.824;4.682;2023-06-22T12:25:08;27.60;50.30
41116;DHT22;26861;51.824;4.682;2023-06-22T12:27:35;27.60;50.50
41116;DHT22;26861;51.824;4.682;2023-06-22T12:30:01;27.60;50.30
41116;DHT22;26861;51.824;4.682;2023-06-22T12:32:27;27.60;50.50
41116;DHT22;26861;51.824;4.682;2023-06-22T12:34:53;27.60;50.70
41116;DHT22;26861;51.824;4.682;2023-06-22T12:37:19;27.60;50.40
41116;DHT22;26861;51.824;4.682;2023-06-22T12:39:44;27.60;50.60
41116;DHT22;26861;51.824;4.682;2023-06-22T12:42:10;27.60;50.40
41116;DHT22;26861;51.824;4.682;2023-06-22T12:44:40;27.60;50.70
41116;DHT22;26861;51.824;4.682;2023-06-22T12:47:07;27.60;50.80
41116;DHT22;26861;51.824;4.682;2023-06-22T12:49:35;27.60;50.70
41116;DHT22;26861;51.824;4.682;2023-06-22T12:52:02;27.60;50.70
41116;DHT22;26861;51.824;4.682;2023-06-22T12:54:27;27.60;51.10
41116;DHT22;26861;51.824;4.682;2023-06-22T12:56:55;27.60;50.70
41116;DHT22;26861;51.824;4.682;2023-06-22T12:59:20;27.60;51.00
41116;DHT22;26861;51.824;4.682;2023-06-22T13:01:46;27.60;50.80
41116;DHT22;26861;51.824;4.682;2023-06-22T13:04:12;27.60;50.70
41116;DHT22;26861;51.824;4.682;2023-06-22T13:06:40;27.70;51.00
41116;DHT22;26861;51.824;4.682;2023-06-22T13:09:06;27.70;51.00
41116;DHT22;26861;51.824;4.682;2023-06-22T13:11:32;27.70;50.90
41116;DHT22;26861;51.824;4.682;2023-06-22T13:13:57;27.70;50.90
41116;DHT22;26861;51.824;4.682;2023-06-22T13:16:23;27.60;51.00
41116;DHT22;26861;51.824;4.682;2023-06-22T13:18:48;27.70;51.10
41116;DHT22;26861;51.824;4.682;2023-06-22T13:21:14;27.60;51.10
41116;DHT22;26861;51.824;4.682;2023-06-22T13:23:40;27.60;51.20
41116;DHT22;26861;51.824;4.682;2023-06-22T13:26:07;27.70;51.40
41116;DHT22;26861;51.824;4.682;2023-06-22T13:28:32;27.60;51.50
41116;DHT22;26861;51.824;4.682;2023-06-22T13:30:58;27.70;51.20
41116;DHT22;26861;51.824;4.682;2023-06-22T13:33:23;27.60;51.30
41116;DHT22;26861;51.824;4.682;2023-06-22T13:35:50;27.70;51.60
41116;DHT22;26861;51.824;4.682;2023-06-22T13:38:16;27.70;51.40
41116;DHT22;26861;51.824;4.682;2023-06-22T13:40:43;27.60;51.60
41116;DHT22;26861;51.824;4.682;2023-06-22T13:43:09;27.60;51.60
41116;DHT22;26861;51.824;4.682;2023-06-22T13:45:35;27.60;51.90
41116;DHT22;26861;51.824;4.682;2023-06-22T13:48:01;27.60;51.90
41116;DHT22;26861;51.824;4.682;2023-06-22T13:50:28;27.60;52.20
41116;DHT22;26861;51.824;4.682;2023-06-22T13:52:55;27.60;51.60
41116;DHT22;26861;51.824;4.682;2023-06-22T13:55:22;27.60;52.10
41116;DHT22;26861;51.824;4.682;2023-06-22T13:57:49;27.60;51.90
41116;DHT22;26861;51.824;4.682;2023-06-22T14:00:15;27.60;52.30
41116;DHT22;26861;51.824;4.682;2023-06-22T14:02:41;27.60;52.00
41116;DHT22;26861;51.824;4.682;2023-06-22T14:05:08;27.60;52.30
41116;DHT22;26861;51.824;4.682;2023-06-22T14:07:34;27.60;52.00
41116;DHT22;26861;51.824;4.682;2023-06-22T14:10:01;27.60;52.10
41116;DHT22;26861;51.824;4.682;2023-06-22T14:12:27;27.60;52.10
41116;DHT22;26861;51.824;4.682;2023-06-22T14:17:19;27.60;51.60
41116;DHT22;26861;51.824;4.682;2023-06-22T14:19:51;27.60;52.20
41116;DHT22;26861;51.824;4.682;2023-06-22T14:22:21;27.60;52.20
41116;DHT22;26861;51.824;4.682;2023-06-22T14:24:50;27.60;52.10
41116;DHT22;26861;51.824;4.682;2023-06-22T14:27:16;27.60;52.10
41116;DHT22;26861;51.824;4.682;2023-06-22T14:29:42;27.60;52.10
41116;DHT22;26861;51.824;4.682;2023-06-22T14:32:09;27.60;52.10
41116;DHT22;26861;51.824;4.682;2023-06-22T14:34:35;27.60;52.40
41116;DHT22;26861;51.824;4.682;2023-06-22T14:37:02;27.50;52.40
41116;DHT22;26861;51.824;4.682;2023-06-22T14:39:28;27.50;52.30
41116;DHT22;26861;51.824;4.682;2023-06-22T14:41:55;27.50;52.40
41116;DHT22;26861;51.824;4.682;2023-06-22T14:44:21;27.50;52.70
41116;DHT22;26861;51.824;4.682;2023-06-22T14:46:48;27.50;52.30
41116;DHT22;26861;51.824;4.682;2023-06-22T14:49:14;27.50;52.10
41116;DHT22;26861;51.824;4.682;2023-06-22T14:51:40;27.50;52.20
41116;DHT22;26861;51.824;4.682;2023-06-22T14:54:05;27.50;52.00
41116;DHT22;26861;51.824;4.682;2023-06-22T14:56:31;27.50;51.80
41116;DHT22;26861;51.824;4.682;2023-06-22T14:58:57;27.50;52.00
41116;DHT22;26861;51.824;4.682;2023-06-22T15:01:22;27.60;67.90
41116;DHT22;26861;51.824;4.682;2023-06-22T15:03:48;27.50;52.60
41116;DHT22;26861;51.824;4.682;2023-06-22T15:06:13;27.50;52.20
41116;DHT22;26861;51.824;4.682;2023-06-22T15:08:40;27.50;52.30
41116;DHT22;26861;51.824;4.682;2023-06-22T15:11:06;27.50;52.10
41116;DHT22;26861;51.824;4.682;2023-06-22T15:13:32;27.50;52.20
41116;DHT22;26861;51.824;4.682;2023-06-22T15:16:00;27.50;52.10
41116;DHT22;26861;51.824;4.682;2023-06-22T15:18:26;27.50;52.10
41116;DHT22;26861;51.824;4.682;2023-06-22T15:20:53;27.50;52.40
41116;DHT22;26861;51.824;4.682;2023-06-22T15:23:19;27.50;52.50
41116;DHT22;26861;51.824;4.682;2023-06-22T15:25:46;27.50;52.30
41116;DHT22;26861;51.824;4.682;2023-06-22T15:28:12;27.50;52.10
41116;DHT22;26861;51.824;4.682;2023-06-22T15:30:38;27.40;52.10
41116;DHT22;26861;51.824;4.682;2023-06-22T15:33:05;27.40;51.80
41116;DHT22;26861;51.824;4.682;2023-06-22T15:35:31;27.40;52.00
41116;DHT22;26861;51.824;4.682;2023-06-22T15:37:57;27.40;51.80
41116;DHT22;26861;51.824;4.682;2023-06-22T15:40:23;27.40;51.90
41116;DHT22;26861;51.824;4.682;2023-06-22T15:42:52;27.40;51.90
41116;DHT22;26861;51.824;4.682;2023-06-22T15:45:18;27.40;52.30
41116;DHT22;26861;51.824;4.682;2023-06-22T15:47:44;27.40;52.00